createdAt,value
2023-01-12T00:00:00.179Z,1.70
2023-01-12T00:00:22.161Z,1.75
2023-01-12T00:00:44.134Z,1.95
2023-01-12T00:01:08.575Z,1.50
2023-01-12T00:01:30.394Z,1.17
2023-01-12T00:01:52.379Z,1.48
2023-01-12T00:02:16.059Z,0.90
2023-01-12T00:02:37.932Z,2.20
2023-01-12T00:02:59.683Z,0.28
2023-01-12T00:03:21.449Z,0.90
2023-01-12T00:03:43.184Z,3.45
2023-01-12T00:04:05.240Z,6.05
2023-01-12T00:04:27.064Z,5.70
2023-01-12T00:04:49.004Z,5.38
2023-01-12T00:05:10.820Z,2.90
2023-01-12T00:05:34.455Z,3.00
2023-01-12T00:06:00.135Z,3.55
2023-01-12T00:06:23.485Z,2.60
2023-01-12T00:06:45.317Z,1.48
2023-01-12T00:07:08.918Z,2.20
2023-01-12T00:07:32.252Z,3.80
2023-01-12T00:07:54.135Z,0.90
2023-01-12T00:08:16.394Z,2.95
2023-01-12T00:08:38.514Z,4.90
2023-01-12T00:09:03.915Z,2.63
2023-01-12T00:09:26.485Z,0.70
2023-01-12T00:09:48.288Z,0.15
2023-01-12T00:10:10.405Z,0.10
2023-01-12T00:10:32.184Z,0.40
2023-01-12T00:10:56.842Z,0.90
2023-01-12T00:11:19.942Z,3.17
2023-01-12T00:11:41.809Z,0.40
2023-01-12T00:12:10.015Z,1.25
2023-01-12T00:12:31.765Z,2.50
2023-01-12T00:12:53.458Z,2.08
2023-01-12T00:13:15.156Z,0.63
2023-01-12T00:13:36.909Z,0.30
2023-01-12T00:13:59.332Z,1.70
2023-01-12T00:14:21.089Z,0.30
2023-01-12T00:14:42.963Z,0.20
2023-01-12T00:15:05.130Z,0.40
2023-01-12T00:15:45.682Z,0.50
2023-01-12T00:16:32.183Z,1.50
2023-01-12T00:16:54.046Z,1.48
2023-01-12T00:17:17.305Z,0.55
2023-01-12T00:17:39.033Z,1.30
2023-01-12T00:18:01.215Z,3.30
2023-01-12T00:18:23.333Z,3.22
2023-01-12T00:18:45.747Z,2.50
2023-01-12T00:19:15.906Z,1.55
2023-01-12T00:19:38.867Z,2.08
2023-01-12T00:20:00.669Z,1.40
2023-01-12T00:20:23.951Z,2.30
2023-01-12T00:20:49.473Z,1.60
2023-01-12T00:21:11.605Z,1.38
2023-01-12T00:21:36.835Z,2.22
2023-01-12T00:22:12.912Z,1.80
2023-01-12T00:22:34.718Z,2.05
2023-01-12T00:22:58.136Z,6.15
2023-01-12T00:23:21.732Z,0.82
2023-01-12T00:23:43.982Z,0.63
2023-01-12T00:24:08.629Z,0.22
2023-01-12T00:24:35.904Z,0.13
2023-01-12T00:24:57.655Z,0.88
2023-01-12T00:25:19.387Z,1.70
2023-01-12T00:25:41.069Z,0.65
2023-01-12T00:26:03.324Z,1.00
2023-01-12T00:26:25.053Z,1.55
2023-01-12T00:26:48.288Z,2.00
2023-01-12T00:27:15.931Z,2.92
2023-01-12T00:27:37.650Z,3.05
2023-01-12T00:27:59.404Z,1.05
2023-01-12T00:28:21.271Z,0.22
2023-01-12T00:28:43.098Z,0.35
2023-01-12T00:29:04.802Z,1.10
2023-01-12T00:29:27.560Z,1.35
2023-01-12T00:29:50.380Z,1.60
2023-01-12T00:30:12.547Z,1.00
2023-01-12T00:30:34.309Z,0.38
2023-01-12T00:31:03.313Z,1.60
2023-01-12T00:31:25.196Z,1.25
2023-01-12T00:31:47.057Z,1.98
2023-01-12T00:32:12.838Z,3.50
2023-01-12T00:32:34.622Z,1.30
2023-01-12T00:32:57.546Z,1.63
2023-01-12T00:33:20.118Z,0.68
2023-01-12T00:33:41.916Z,2.25
2023-01-12T00:34:03.698Z,3.80
2023-01-12T00:34:27.413Z,0.45
2023-01-12T00:34:51.061Z,0.77
2023-01-12T00:35:13.263Z,0.50
2023-01-12T00:35:37.992Z,1.00
2023-01-12T00:36:03.282Z,2.20
2023-01-12T00:36:25.574Z,1.95
2023-01-12T00:36:48.027Z,3.22
2023-01-12T00:37:10.182Z,2.67
2023-01-12T00:37:34.071Z,1.27
2023-01-12T00:37:55.748Z,1.92
2023-01-12T00:38:17.447Z,1.80
2023-01-12T00:38:40.263Z,0.30
2023-01-12T00:39:02.153Z,0.57
2023-01-12T00:39:23.916Z,3.60
2023-01-12T00:39:56.789Z,2.45
2023-01-12T00:40:22.519Z,1.10
2023-01-12T00:40:44.215Z,1.20
2023-01-12T00:41:11.313Z,0.73
2023-01-12T00:41:51.659Z,1.80
2023-01-12T00:42:32.048Z,0.60
2023-01-12T00:43:12.572Z,0.82
2023-01-12T00:43:53.292Z,1.00
2023-01-12T00:44:33.774Z,1.50
2023-01-12T00:45:14.276Z,1.50
2023-01-12T00:45:35.988Z,0.90
2023-01-12T00:45:57.990Z,1.00
2023-01-12T00:46:20.015Z,0.80
2023-01-12T00:46:41.789Z,1.15
2023-01-12T00:47:07.508Z,2.20
2023-01-12T00:47:29.299Z,1.30
2023-01-12T00:47:53.306Z,0.20
2023-01-12T00:48:15.565Z,0.98
2023-01-12T00:48:37.354Z,0.57
2023-01-12T00:48:59.115Z,0.20
2023-01-12T00:49:20.832Z,0.60
2023-01-12T00:49:42.987Z,0.22
2023-01-12T00:50:05.067Z,2.60
2023-01-12T00:50:28.051Z,1.83
2023-01-12T00:50:49.767Z,0.35
2023-01-12T00:51:11.552Z,0.40
2023-01-12T00:51:33.288Z,0.60
2023-01-12T00:51:55.100Z,1.50
2023-01-12T00:52:29.815Z,1.88
2023-01-12T00:52:54.520Z,0.77
2023-01-12T00:53:16.846Z,0.32
2023-01-12T00:53:38.581Z,1.50
2023-01-12T00:54:04.489Z,1.55
2023-01-12T00:54:26.264Z,8.55
2023-01-12T00:54:48.007Z,0.80
2023-01-12T00:55:09.830Z,1.45
2023-01-12T00:55:31.565Z,3.55
2023-01-12T00:55:53.348Z,1.48
2023-01-12T00:56:15.078Z,1.67
2023-01-12T00:56:37.898Z,0.98
2023-01-12T00:56:59.694Z,0.87
2023-01-12T00:57:21.512Z,0.60
2023-01-12T00:57:43.523Z,0.50
2023-01-12T00:58:05.475Z,1.80
2023-01-12T00:58:28.690Z,1.77
2023-01-12T00:58:50.464Z,5.00
2023-01-12T00:59:12.291Z,1.13
2023-01-12T00:59:34.021Z,1.10
2023-01-12T00:59:58.161Z,0.90
2023-01-12T01:00:20.375Z,0.10
2023-01-12T01:00:42.125Z,1.10
2023-01-12T01:01:08.599Z,1.85
2023-01-12T01:01:31.474Z,0.10
2023-01-12T01:01:53.315Z,0.50
2023-01-12T01:02:15.212Z,1.60
2023-01-12T01:02:37.171Z,3.92
2023-01-12T01:02:59.069Z,4.70
2023-01-12T01:03:20.918Z,2.15
2023-01-12T01:03:42.729Z,0.30
2023-01-12T01:04:04.718Z,0.10
2023-01-12T01:04:26.475Z,0.22
2023-01-12T01:04:48.286Z,7.60
2023-01-12T01:05:10.163Z,7.10
2023-01-12T01:05:31.904Z,0.60
2023-01-12T01:05:53.625Z,0.32
2023-01-12T01:06:15.407Z,0.73
2023-01-12T01:06:38.915Z,3.75
2023-01-12T01:07:01.601Z,4.60
2023-01-12T01:07:23.684Z,0.90
2023-01-12T01:07:47.171Z,2.42
2023-01-12T01:08:08.923Z,0.00
2023-01-12T01:08:31.371Z,0.50
2023-01-12T01:08:53.342Z,1.83
2023-01-12T01:09:15.301Z,1.90
2023-01-12T01:09:37.019Z,1.48
2023-01-12T01:09:58.816Z,2.47
2023-01-12T01:10:20.736Z,3.25
2023-01-12T01:10:42.528Z,1.67
2023-01-12T01:11:06.669Z,0.10
2023-01-12T01:11:28.494Z,1.80
2023-01-12T01:11:50.273Z,1.95
2023-01-12T01:12:12.244Z,0.50
2023-01-12T01:12:34.216Z,0.43
2023-01-12T01:12:55.903Z,1.70
2023-01-12T01:13:17.624Z,0.60
2023-01-12T01:13:41.405Z,1.10
2023-01-12T01:14:03.855Z,0.50
2023-01-12T01:14:25.909Z,1.70
2023-01-12T01:14:50.908Z,2.20
2023-01-12T01:15:13.103Z,1.65
2023-01-12T01:15:34.870Z,2.38
2023-01-12T01:15:59.901Z,3.45
2023-01-12T01:16:21.996Z,1.40
2023-01-12T01:16:43.861Z,0.70
2023-01-12T01:17:05.987Z,0.82
2023-01-12T01:17:28.838Z,2.50
2023-01-12T01:17:50.592Z,1.13
2023-01-12T01:18:12.324Z,4.00
2023-01-12T01:18:35.713Z,1.67
2023-01-12T01:18:58.528Z,1.55
2023-01-12T01:19:21.450Z,0.50
2023-01-12T01:19:43.711Z,0.60
2023-01-12T01:20:06.083Z,1.38
2023-01-12T01:20:28.018Z,1.40
2023-01-12T01:20:49.767Z,1.00
2023-01-12T01:21:13.347Z,3.33
2023-01-12T01:21:35.204Z,0.63
2023-01-12T01:21:56.995Z,1.10
2023-01-12T01:22:18.776Z,3.55
2023-01-12T01:22:40.665Z,4.00
2023-01-12T01:23:02.412Z,2.28
2023-01-12T01:23:25.924Z,2.00
2023-01-12T01:23:47.699Z,3.20
2023-01-12T01:24:12.852Z,3.20
2023-01-12T01:24:34.584Z,0.32
2023-01-12T01:24:56.334Z,1.60
2023-01-12T01:25:18.128Z,1.60
2023-01-12T01:25:39.891Z,0.90
2023-01-12T01:26:06.176Z,1.13
2023-01-12T01:26:30.836Z,2.08
2023-01-12T01:26:52.596Z,1.55
2023-01-12T01:27:16.735Z,1.10
2023-01-12T01:27:38.522Z,1.10
2023-01-12T01:28:00.327Z,1.02
2023-01-12T01:28:22.465Z,1.65
2023-01-12T01:28:44.902Z,1.17
2023-01-12T01:29:07.071Z,0.10
2023-01-12T01:29:28.861Z,2.30
2023-01-12T01:29:51.802Z,2.20
2023-01-12T01:30:13.598Z,0.30
2023-01-12T01:30:35.294Z,0.15
2023-01-12T01:31:07.384Z,1.20
2023-01-12T01:31:29.420Z,3.60
2023-01-12T01:31:51.237Z,0.57
2023-01-12T01:32:13.078Z,0.70
2023-01-12T01:32:34.800Z,3.50
2023-01-12T01:32:56.565Z,3.90
2023-01-12T01:33:18.361Z,1.73
2023-01-12T01:33:40.592Z,1.92
2023-01-12T01:34:02.395Z,3.53
2023-01-12T01:34:24.291Z,1.70
2023-01-12T01:34:47.139Z,0.10
2023-01-12T01:35:09.284Z,0.40
2023-01-12T01:35:31.079Z,0.88
2023-01-12T01:35:52.771Z,0.13
2023-01-12T01:36:15.212Z,1.63
2023-01-12T01:36:36.918Z,2.25
2023-01-12T01:36:59.244Z,0.70
2023-01-12T01:37:21.793Z,0.32
2023-01-12T01:37:43.601Z,0.20
2023-01-12T01:38:05.719Z,0.60
2023-01-12T01:38:28.149Z,1.17
2023-01-12T01:38:50.699Z,1.92
2023-01-12T01:39:12.459Z,0.20
2023-01-12T01:39:34.211Z,0.70
2023-01-12T01:39:56.555Z,2.80
2023-01-12T01:40:18.431Z,0.98
2023-01-12T01:40:43.491Z,0.50
2023-01-12T01:41:06.812Z,0.43
2023-01-12T01:41:31.240Z,0.40
2023-01-12T01:41:53.212Z,0.65
2023-01-12T01:42:28.535Z,1.33
2023-01-12T01:42:50.432Z,2.35
2023-01-12T01:43:16.638Z,1.15
2023-01-12T01:44:25.924Z,2.63
2023-01-12T01:44:52.633Z,1.10
2023-01-12T01:45:16.732Z,1.17
2023-01-12T01:45:38.465Z,1.02
2023-01-12T01:46:05.656Z,0.57
2023-01-12T01:46:33.186Z,0.30
2023-01-12T01:47:07.540Z,1.95
2023-01-12T01:47:35.682Z,1.80
2023-01-12T01:48:01.564Z,1.20
2023-01-12T01:48:25.013Z,4.68
2023-01-12T01:48:47.384Z,1.30
2023-01-12T01:49:45.022Z,0.80
2023-01-12T01:50:16.043Z,6.43
2023-01-12T01:50:45.830Z,2.78
2023-01-12T01:51:11.595Z,2.03
2023-01-12T01:51:33.372Z,1.70
2023-01-12T01:52:00.465Z,2.70
2023-01-12T01:52:29.068Z,1.30
2023-01-12T01:52:56.134Z,0.30
2023-01-12T01:53:22.589Z,0.60
2023-01-12T01:53:47.064Z,0.65
2023-01-12T01:54:08.918Z,0.43
2023-01-12T01:54:34.007Z,0.40
2023-01-12T01:54:55.761Z,0.63
2023-01-12T01:55:38.778Z,3.37
2023-01-12T01:56:08.141Z,2.03
2023-01-12T01:56:33.697Z,0.30
2023-01-12T01:56:56.597Z,0.70
2023-01-12T01:57:19.367Z,0.43
2023-01-12T01:57:52.642Z,0.50
2023-01-12T01:58:22.730Z,2.10
2023-01-12T01:58:50.811Z,0.90
2023-01-12T01:59:24.167Z,3.00
2023-01-12T01:59:52.457Z,1.35
2023-01-12T02:00:14.646Z,1.25
2023-01-12T02:00:41.365Z,0.52
2023-01-12T02:01:03.357Z,1.20
2023-01-12T02:01:25.864Z,1.27
2023-01-12T02:01:48.191Z,3.47
2023-01-12T02:02:10.174Z,4.20
2023-01-12T02:02:32.203Z,1.30
2023-01-12T02:02:55.608Z,0.30
2023-01-12T02:03:18.677Z,0.30
2023-01-12T02:03:42.042Z,0.45
2023-01-12T02:04:04.626Z,1.90
2023-01-12T02:04:26.726Z,0.55
2023-01-12T02:04:48.548Z,0.60
2023-01-12T02:05:11.380Z,0.40
2023-01-12T02:05:33.547Z,4.55
2023-01-12T02:05:57.066Z,5.50
2023-01-12T02:06:18.858Z,3.85
2023-01-12T02:06:40.991Z,1.17
2023-01-12T02:07:03.431Z,0.55
2023-01-12T02:07:25.379Z,2.00
2023-01-12T02:07:49.270Z,2.08
2023-01-12T02:08:36.209Z,1.23
2023-01-12T02:08:59.226Z,0.20
2023-01-12T02:09:30.630Z,0.60
2023-01-12T02:09:52.439Z,2.00
2023-01-12T02:10:14.260Z,0.10
2023-01-12T02:10:37.159Z,0.50
2023-01-12T02:11:00.433Z,0.40
2023-01-12T02:11:41.139Z,1.50
2023-01-12T02:12:22.049Z,1.85
2023-01-12T02:13:02.512Z,2.00
2023-01-12T02:13:46.602Z,1.10
2023-01-12T02:14:28.893Z,2.45
2023-01-12T02:15:10.618Z,2.00
2023-01-12T02:16:25.988Z,1.40
2023-01-12T02:17:17.850Z,2.20
2023-01-12T02:17:48.428Z,2.20
2023-01-12T02:18:33.998Z,0.47
2023-01-12T02:19:07.612Z,0.57
2023-01-12T02:19:47.905Z,0.65
2023-01-12T02:20:46.454Z,2.40
2023-01-12T02:21:51.396Z,0.40
2023-01-12T02:22:37.452Z,0.40
2023-01-12T02:23:24.017Z,0.55
2023-01-12T02:24:26.208Z,1.50
2023-01-12T02:25:02.999Z,0.50
2023-01-12T02:26:01.837Z,0.10
2023-01-12T02:26:54.096Z,0.60
2023-01-12T02:27:54.429Z,0.10
2023-01-12T02:28:43.287Z,0.60
2023-01-12T02:29:23.947Z,0.70
2023-01-12T02:30:33.629Z,1.55
2023-01-12T02:31:26.002Z,0.70
2023-01-12T02:32:08.815Z,0.82
2023-01-12T02:32:36.555Z,0.70
2023-01-12T02:33:19.789Z,1.20
2023-01-12T02:33:44.505Z,0.30
2023-01-12T02:34:24.651Z,0.63
2023-01-12T02:35:07.948Z,1.80
2023-01-12T02:35:47.598Z,0.10
2023-01-12T02:36:26.466Z,0.23
2023-01-12T02:37:00.362Z,0.38
2023-01-12T02:37:34.755Z,0.93
2023-01-12T02:38:07.681Z,2.30
2023-01-12T02:38:46.992Z,2.58
2023-01-12T02:39:24.472Z,0.13
2023-01-12T02:39:59.603Z,0.60
2023-01-12T02:40:43.891Z,0.30
2023-01-12T02:41:40.794Z,0.55
2023-01-12T02:42:44.819Z,1.90
2023-01-12T02:43:32.412Z,0.30
2023-01-12T02:43:54.705Z,0.80
2023-01-12T02:44:46.576Z,0.98
2023-01-12T02:45:34.611Z,0.20
2023-01-12T02:46:25.758Z,2.15
2023-01-12T02:46:50.655Z,0.43
2023-01-12T02:47:27.570Z,1.52
2023-01-12T02:47:55.548Z,0.95
2023-01-12T02:48:32.021Z,0.45
2023-01-12T02:49:08.368Z,0.50
2023-01-12T02:49:34.974Z,0.60
2023-01-12T02:50:03.123Z,3.58
2023-01-12T02:50:34.671Z,0.60
2023-01-12T02:51:29.128Z,0.28
2023-01-12T02:51:58.636Z,1.80
2023-01-12T02:52:24.163Z,2.50
2023-01-12T02:52:49.553Z,0.40
2023-01-12T02:53:23.095Z,0.30
2023-01-12T02:54:01.494Z,0.40
2023-01-12T02:54:25.041Z,1.77
2023-01-12T02:54:49.286Z,0.10
2023-01-12T02:55:14.088Z,3.20
2023-01-12T02:55:37.616Z,8.40
2023-01-12T02:56:07.625Z,0.60
2023-01-12T02:56:35.377Z,0.40
2023-01-12T02:57:03.895Z,3.35
2023-01-12T02:57:28.433Z,1.25
2023-01-12T02:57:51.524Z,0.90
2023-01-12T02:58:17.034Z,0.60
2023-01-12T02:58:45.017Z,1.63
2023-01-12T02:59:30.112Z,2.88
2023-01-12T02:59:53.754Z,0.10
2023-01-12T03:00:18.251Z,1.25
2023-01-12T03:00:42.061Z,1.60
2023-01-12T03:01:05.745Z,1.00
2023-01-12T03:01:29.102Z,1.70
2023-01-12T03:01:53.558Z,0.60
2023-01-12T03:02:24.400Z,0.40
2023-01-12T03:02:46.199Z,12.85
2023-01-12T03:03:08.637Z,2.40
2023-01-12T03:03:31.207Z,0.88
2023-01-12T03:04:00.413Z,1.05
2023-01-12T03:04:23.562Z,1.60
2023-01-12T03:04:45.362Z,1.23
2023-01-12T03:05:08.461Z,0.35
2023-01-12T03:05:30.198Z,0.45
2023-01-12T03:05:54.365Z,1.77
2023-01-12T03:06:19.342Z,1.00
2023-01-12T03:06:58.042Z,0.80
2023-01-12T03:07:35.667Z,1.25
2023-01-12T03:08:01.868Z,1.63
2023-01-12T03:08:28.622Z,1.75
2023-01-12T03:08:52.423Z,1.67
2023-01-12T03:09:19.082Z,0.73
2023-01-12T03:09:44.813Z,1.20
2023-01-12T03:10:27.256Z,0.40
2023-01-12T03:11:12.574Z,0.63
2023-01-12T03:11:38.581Z,5.38
2023-01-12T03:12:23.670Z,4.90
2023-01-12T03:12:48.432Z,3.00
2023-01-12T03:13:15.705Z,1.35
2023-01-12T03:13:41.413Z,1.60
2023-01-12T03:14:04.349Z,0.30
2023-01-12T03:14:27.907Z,0.20
2023-01-12T03:14:53.436Z,0.00
2023-01-12T03:15:17.425Z,0.10
2023-01-12T03:15:46.575Z,0.77
2023-01-12T03:16:11.600Z,2.60
2023-01-12T03:16:36.239Z,0.65
2023-01-12T03:16:58.010Z,1.30
2023-01-12T03:17:43.259Z,0.00
2023-01-12T03:18:16.785Z,0.30
2023-01-12T03:18:52.838Z,2.30
2023-01-12T03:19:21.717Z,1.00
2023-01-12T03:19:45.535Z,1.10
2023-01-12T03:20:16.322Z,0.80
2023-01-12T03:20:44.708Z,0.30
2023-01-12T03:21:11.526Z,0.30
2023-01-12T03:21:36.672Z,0.50
2023-01-12T03:22:05.655Z,10.23
2023-01-12T03:22:28.589Z,7.25
2023-01-12T03:22:54.006Z,1.70
2023-01-12T03:23:23.128Z,1.33
2023-01-12T03:23:49.502Z,2.60
2023-01-12T03:24:39.396Z,0.30
2023-01-12T03:25:09.113Z,0.60
2023-01-12T03:25:33.642Z,0.82
2023-01-12T03:25:57.947Z,0.90
2023-01-12T03:26:23.277Z,1.15
2023-01-12T03:26:55.614Z,6.80
2023-01-12T03:27:21.720Z,0.35
2023-01-12T03:27:47.478Z,0.70
2023-01-12T03:28:10.670Z,0.63
2023-01-12T03:28:36.908Z,0.45
2023-01-12T03:29:11.103Z,0.63
2023-01-12T03:29:42.803Z,0.10
2023-01-12T03:30:11.344Z,0.00
2023-01-12T03:30:40.429Z,1.60
2023-01-12T03:31:11.723Z,0.60
2023-01-12T03:31:34.046Z,2.70
2023-01-12T03:31:56.754Z,3.50
2023-01-12T03:32:21.195Z,3.60
2023-01-12T03:32:43.140Z,0.20
2023-01-12T03:33:08.868Z,1.40
2023-01-12T03:33:30.642Z,1.40
2023-01-12T03:33:52.454Z,2.60
2023-01-12T03:34:14.561Z,0.55
2023-01-12T03:34:37.378Z,1.15
2023-01-12T03:34:59.678Z,0.80
2023-01-12T03:35:27.474Z,0.85
2023-01-12T03:36:04.912Z,0.73
2023-01-12T03:36:40.821Z,2.30
2023-01-12T03:37:19.191Z,0.55
2023-01-12T03:38:23.086Z,2.13
2023-01-12T03:39:12.040Z,0.40
2023-01-12T03:39:39.823Z,0.40
2023-01-12T03:40:14.365Z,0.30
2023-01-12T03:40:43.540Z,0.50
2023-01-12T03:41:12.745Z,1.60
2023-01-12T03:41:38.492Z,2.53
2023-01-12T03:42:23.196Z,0.93
2023-01-12T03:42:46.820Z,0.30
2023-01-12T03:43:38.769Z,2.80
2023-01-12T03:44:04.855Z,2.78
2023-01-12T03:45:06.044Z,8.90
2023-01-12T03:45:27.880Z,3.80
2023-01-12T03:46:22.700Z,3.65
2023-01-12T03:46:53.316Z,0.80
2023-01-12T03:47:20.770Z,4.70
2023-01-12T03:47:43.857Z,0.82
2023-01-12T03:48:19.456Z,0.47
2023-01-12T03:49:06.596Z,2.08
2023-01-12T03:49:34.731Z,1.88
2023-01-12T03:50:05.358Z,1.80
2023-01-12T03:50:38.862Z,1.42
2023-01-12T03:51:22.493Z,1.65
2023-01-12T03:51:47.831Z,0.82
2023-01-12T03:52:12.186Z,0.40
2023-01-12T03:52:37.546Z,0.40
2023-01-12T03:53:01.753Z,0.30
2023-01-12T03:53:24.385Z,0.32
2023-01-12T03:53:51.777Z,0.20
2023-01-12T03:54:15.037Z,0.80
2023-01-12T03:54:39.689Z,0.10
2023-01-12T03:55:03.552Z,0.43
2023-01-12T03:55:29.913Z,0.20
2023-01-12T03:55:57.387Z,0.70
2023-01-12T03:56:23.139Z,5.60
2023-01-12T03:56:47.004Z,4.85
2023-01-12T03:57:10.720Z,2.40
2023-01-12T03:57:33.747Z,0.20
2023-01-12T03:57:56.203Z,0.10
2023-01-12T03:58:18.715Z,0.95
2023-01-12T03:58:41.310Z,3.40
2023-01-12T03:59:04.598Z,0.43
2023-01-12T03:59:26.565Z,0.28
2023-01-12T03:59:48.821Z,1.20
2023-01-12T04:00:13.522Z,0.98
2023-01-12T04:00:35.351Z,1.77
2023-01-12T04:00:57.166Z,1.60
2023-01-12T04:01:19.222Z,2.40
2023-01-12T04:01:43.286Z,0.95
2023-01-12T04:02:05.114Z,1.50
2023-01-12T04:02:27.000Z,1.02
2023-01-12T04:02:48.726Z,2.40
2023-01-12T04:03:13.991Z,0.93
2023-01-12T04:03:35.808Z,0.52
2023-01-12T04:03:57.677Z,2.33
2023-01-12T04:04:20.199Z,1.38
2023-01-12T04:04:42.077Z,2.50
2023-01-12T04:05:05.644Z,1.15
2023-01-12T04:05:27.632Z,0.10
2023-01-12T04:05:49.588Z,0.68
2023-01-12T04:06:11.420Z,0.63
2023-01-12T04:06:33.217Z,0.30
2023-01-12T04:06:55.043Z,0.73
2023-01-12T04:07:16.737Z,0.80
2023-01-12T04:07:38.524Z,0.35
2023-01-12T04:08:00.332Z,1.30
2023-01-12T04:08:22.296Z,0.70
2023-01-12T04:08:44.012Z,5.47
2023-01-12T04:09:05.876Z,6.50
2023-01-12T04:09:27.980Z,1.55
2023-01-12T04:09:49.649Z,0.47
2023-01-12T04:10:11.638Z,0.10
2023-01-12T04:10:33.580Z,1.00
2023-01-12T04:10:56.194Z,0.80
2023-01-12T04:11:36.359Z,1.17
2023-01-12T04:12:10.217Z,1.30
2023-01-12T04:12:32.462Z,0.52
2023-01-12T04:12:54.190Z,0.50
2023-01-12T04:13:15.993Z,0.90
2023-01-12T04:13:37.668Z,5.90
2023-01-12T04:13:59.456Z,0.68
2023-01-12T04:14:21.217Z,0.40
2023-01-12T04:14:47.823Z,1.80
2023-01-12T04:15:10.277Z,1.80
2023-01-12T04:15:32.261Z,0.55
2023-01-12T04:15:54.052Z,0.50
2023-01-12T04:16:15.869Z,0.80
2023-01-12T04:16:37.707Z,0.52
2023-01-12T04:16:59.462Z,0.85
2023-01-12T04:17:25.204Z,0.45
2023-01-12T04:17:47.069Z,0.90
2023-01-12T04:18:10.267Z,1.15
2023-01-12T04:18:31.969Z,2.55
2023-01-12T04:18:53.714Z,1.13
2023-01-12T04:19:15.409Z,0.32
2023-01-12T04:19:37.281Z,0.20
2023-01-12T04:19:59.067Z,1.20
2023-01-12T04:20:21.305Z,2.08
2023-01-12T04:20:43.160Z,3.60
2023-01-12T04:21:05.087Z,4.32
2023-01-12T04:21:45.127Z,1.38
2023-01-12T04:22:26.016Z,2.70
2023-01-12T04:22:48.102Z,0.75
2023-01-12T04:23:09.817Z,2.67
2023-01-12T04:23:31.560Z,2.25
2023-01-12T04:23:53.579Z,2.13
2023-01-12T04:24:15.296Z,2.65
2023-01-12T04:24:37.164Z,1.98
2023-01-12T04:24:58.911Z,1.70
2023-01-12T04:25:22.561Z,0.20
2023-01-12T04:25:44.226Z,0.30
2023-01-12T04:26:06.000Z,0.57
2023-01-12T04:26:27.766Z,1.65
2023-01-12T04:26:49.504Z,1.30
2023-01-12T04:27:11.552Z,0.50
2023-01-12T04:27:33.313Z,3.75
2023-01-12T04:28:00.841Z,2.60
2023-01-12T04:28:22.578Z,3.13
2023-01-12T04:28:44.342Z,0.93
2023-01-12T04:29:06.271Z,1.92
2023-01-12T04:29:28.390Z,7.47
2023-01-12T04:29:50.264Z,1.87
2023-01-12T04:30:12.581Z,0.65
2023-01-12T04:30:34.518Z,1.58
2023-01-12T04:30:56.256Z,3.60
2023-01-12T04:31:18.050Z,3.55
2023-01-12T04:31:40.215Z,2.30
2023-01-12T04:32:02.084Z,2.25
2023-01-12T04:32:23.921Z,0.95
2023-01-12T04:32:46.334Z,1.05
2023-01-12T04:33:09.408Z,1.50
2023-01-12T04:33:31.117Z,1.25
2023-01-12T04:33:52.808Z,2.25
2023-01-12T04:34:14.553Z,2.47
2023-01-12T04:34:36.593Z,3.30
2023-01-12T04:34:58.379Z,5.43
2023-01-12T04:35:20.139Z,3.67
2023-01-12T04:35:41.882Z,1.73
2023-01-12T04:36:03.814Z,2.50
2023-01-12T04:36:25.693Z,2.72
2023-01-12T04:36:47.448Z,0.68
2023-01-12T04:37:09.252Z,3.70
2023-01-12T04:37:33.704Z,3.90
2023-01-12T04:37:56.123Z,2.97
2023-01-12T04:38:19.533Z,1.35
2023-01-12T04:38:41.612Z,3.10
2023-01-12T04:39:03.596Z,1.23
2023-01-12T04:39:25.285Z,1.05
2023-01-12T04:39:47.086Z,3.15
2023-01-12T04:40:10.783Z,1.63
2023-01-12T04:40:32.507Z,1.83
2023-01-12T04:40:55.101Z,1.40
2023-01-12T04:41:16.910Z,1.00
2023-01-12T04:41:38.724Z,1.92
2023-01-12T04:42:00.433Z,0.30
2023-01-12T04:42:40.749Z,0.50
2023-01-12T04:43:07.395Z,1.13
2023-01-12T04:43:29.502Z,0.10
2023-01-12T04:43:51.260Z,0.20
2023-01-12T04:44:13.021Z,4.95
2023-01-12T04:44:34.954Z,3.45
2023-01-12T04:44:56.695Z,1.95
2023-01-12T04:45:18.503Z,1.58
2023-01-12T04:45:43.584Z,1.00
2023-01-12T04:46:07.193Z,0.10
2023-01-12T04:46:28.924Z,0.20
2023-01-12T04:46:51.259Z,0.50
2023-01-12T04:47:12.995Z,0.22
2023-01-12T04:47:34.781Z,0.17
2023-01-12T04:47:56.475Z,0.90
2023-01-12T04:48:19.621Z,0.10
2023-01-12T04:48:43.934Z,2.60
2023-01-12T04:49:05.661Z,2.80
2023-01-12T04:49:27.388Z,0.75
2023-01-12T04:49:49.251Z,0.80
2023-01-12T04:50:11.631Z,0.90
2023-01-12T04:50:33.957Z,0.20
2023-01-12T04:50:55.671Z,0.50
2023-01-12T04:51:17.575Z,0.50
2023-01-12T04:51:39.560Z,0.75
2023-01-12T04:52:01.288Z,0.70
2023-01-12T04:52:23.032Z,1.50
2023-01-12T04:52:45.333Z,0.20
2023-01-12T04:53:09.238Z,1.52
2023-01-12T04:53:31.403Z,1.00
2023-01-12T04:53:53.528Z,2.75
2023-01-12T04:54:15.318Z,8.80
2023-01-12T04:54:36.999Z,2.45
2023-01-12T04:54:58.749Z,0.90
2023-01-12T04:55:20.516Z,0.10
2023-01-12T04:55:43.793Z,0.25
2023-01-12T04:56:07.202Z,0.30
2023-01-12T04:56:28.912Z,0.10
2023-01-12T04:56:50.679Z,0.30
2023-01-12T04:57:13.287Z,0.03
2023-01-12T04:57:35.540Z,0.05
2023-01-12T04:57:57.769Z,0.35
2023-01-12T04:58:19.723Z,0.50
2023-01-12T04:58:42.392Z,0.30
2023-01-12T04:59:06.851Z,0.90
2023-01-12T04:59:29.460Z,5.35
2023-01-12T04:59:51.378Z,2.47
2023-01-12T05:00:13.542Z,5.32
2023-01-12T05:00:36.157Z,6.57
2023-01-12T05:00:58.180Z,5.20
2023-01-12T05:01:20.974Z,2.10
2023-01-12T05:01:42.767Z,2.70
2023-01-12T05:02:04.611Z,0.98
2023-01-12T05:02:27.723Z,0.30
2023-01-12T05:02:50.236Z,1.13
2023-01-12T05:03:13.277Z,0.73
2023-01-12T05:03:35.059Z,0.30
2023-01-12T05:04:00.466Z,0.60
2023-01-12T05:04:22.334Z,0.65
2023-01-12T05:04:46.069Z,0.50
2023-01-12T05:05:09.117Z,0.20
2023-01-12T05:05:32.371Z,0.20
2023-01-12T05:05:54.066Z,0.80
2023-01-12T05:06:15.781Z,1.70
2023-01-12T05:06:37.628Z,1.23
2023-01-12T05:06:59.361Z,0.60
2023-01-12T05:07:21.623Z,0.52
2023-01-12T05:08:03.297Z,1.38
2023-01-12T05:08:43.897Z,0.35
2023-01-12T05:09:24.255Z,1.65
2023-01-12T05:10:21.543Z,1.58
2023-01-12T05:10:43.271Z,3.72
2023-01-12T05:11:05.225Z,7.97
2023-01-12T05:11:28.725Z,2.40
2023-01-12T05:11:50.462Z,0.65
2023-01-12T05:12:12.228Z,1.80
2023-01-12T05:12:34.018Z,2.70
2023-01-12T05:12:57.014Z,0.65
2023-01-12T05:13:19.307Z,1.50
2023-01-12T05:13:41.120Z,0.28
2023-01-12T05:14:03.693Z,1.80
2023-01-12T05:14:26.272Z,3.10
2023-01-12T05:14:49.349Z,4.40
2023-01-12T05:15:11.593Z,3.75
2023-01-12T05:15:33.315Z,3.20
2023-01-12T05:15:55.215Z,2.30
2023-01-12T05:16:18.590Z,1.38
2023-01-12T05:16:40.537Z,0.10
2023-01-12T05:17:02.368Z,1.75
2023-01-12T05:17:24.207Z,2.30
2023-01-12T05:17:46.048Z,1.60
2023-01-12T05:18:07.746Z,2.67
2023-01-12T05:18:29.434Z,2.70
2023-01-12T05:18:53.244Z,10.05
2023-01-12T05:19:15.091Z,6.28
2023-01-12T05:19:36.816Z,3.67
2023-01-12T05:20:00.701Z,3.30
2023-01-12T05:20:22.876Z,3.80
2023-01-12T05:20:44.690Z,0.30
2023-01-12T05:21:06.426Z,3.40
2023-01-12T05:21:28.101Z,0.30
2023-01-12T05:21:49.845Z,0.13
2023-01-12T05:22:11.542Z,0.70
2023-01-12T05:22:33.302Z,1.75
2023-01-12T05:22:55.347Z,1.00
2023-01-12T05:23:17.099Z,1.08
2023-01-12T05:23:39.208Z,0.82
2023-01-12T05:24:01.082Z,1.20
2023-01-12T05:24:22.818Z,1.70
2023-01-12T05:24:44.543Z,0.57
2023-01-12T05:25:06.896Z,1.27
2023-01-12T05:25:29.480Z,1.83
2023-01-12T05:25:51.337Z,3.60
2023-01-12T05:26:13.208Z,1.73
2023-01-12T05:26:35.000Z,1.55
2023-01-12T05:26:56.731Z,1.55
2023-01-12T05:27:18.695Z,1.20
2023-01-12T05:27:40.692Z,0.57
2023-01-12T05:28:02.831Z,0.70
2023-01-12T05:28:24.594Z,0.55
2023-01-12T05:28:50.674Z,0.60
2023-01-12T05:29:12.943Z,0.45
2023-01-12T05:29:34.765Z,1.00
2023-01-12T05:29:57.195Z,1.85
2023-01-12T05:30:19.038Z,1.95
2023-01-12T05:30:40.850Z,4.30
2023-01-12T05:31:04.275Z,1.70
2023-01-12T05:31:26.208Z,1.42
2023-01-12T05:31:48.060Z,1.95
2023-01-12T05:32:12.701Z,3.70
2023-01-12T05:32:38.254Z,3.65
2023-01-12T05:32:59.970Z,1.40
2023-01-12T05:33:21.793Z,1.35
2023-01-12T05:33:43.675Z,0.70
2023-01-12T05:34:05.423Z,0.47
2023-01-12T05:34:27.201Z,1.10
2023-01-12T05:34:48.956Z,4.30
2023-01-12T05:35:10.795Z,5.90
2023-01-12T05:35:32.604Z,15.43
2023-01-12T05:35:54.291Z,4.00
2023-01-12T05:36:17.982Z,9.55
2023-01-12T05:36:39.861Z,7.75
2023-01-12T05:37:01.580Z,3.78
2023-01-12T05:37:23.357Z,6.28
2023-01-12T05:37:45.466Z,7.25
2023-01-12T05:38:07.165Z,2.95
2023-01-12T05:38:29.731Z,12.00
2023-01-12T05:38:51.502Z,8.00
2023-01-12T05:39:13.656Z,14.02
2023-01-12T05:39:35.448Z,18.42
2023-01-12T05:39:57.301Z,13.43
2023-01-12T05:40:19.217Z,18.23
2023-01-12T05:40:40.968Z,20.40
2023-01-12T05:41:04.620Z,42.50
2023-01-12T05:41:26.480Z,28.60
2023-01-12T05:42:06.723Z,46.03
2023-01-12T05:42:47.110Z,19.27
2023-01-12T05:43:31.500Z,21.25
2023-01-12T05:43:54.750Z,33.13
2023-01-12T05:44:16.521Z,30.05